KFNL/FNL METAR and TAF weather

Enter ICAO airport designator
Station Type Date Time Source
KFNL METAR 2021/02/28 01:56 UTC NOAA

KFNL 280156Z AUTO 31007KT 10SM CLR M03/M16 A2989 RMK AO2 SLP146 T10281156 FZRANO


Station Type Date Time Source
KFNL Decoded METAR 2021/02/28 01:56 UTC NOAA

Fort Collins/Loveland, Fort Collins-Loveland Municipal Airport, CO, United States (KFNL) 40-27N 105-01W
Feb 27, 2021 - 08:56 PM EST / 2021.02.28 0156 UTC
Wind: from the NW (310 degrees) at 8 MPH (7 KT):0
Visibility: 10 mile(s):0
Sky conditions: clear
Temperature: 27.0 F (-2.8 C)
Windchill: 19 F (-7 C):1
Dew Point: 3.9 F (-15.6 C)
Relative Humidity: 36%
Pressure (altimeter): 29.89 in. Hg (1012 hPa)
ob: KFNL 280156Z AUTO 31007KT 10SM CLR M03/M16 A2989 RMK AO2 SLP146 T10281156 FZRANO
cycle: 2

Station Type Date Time Source
KFNL TAF UTC NOAA

Error!

Example: see airport list